Flight Track Log - Related Links

Times and Time Zones

All times are in EDT time to prevent confusion due to time zone crossing. See the UAL33 flight status page for this flight to view local times or setup timezone preferences in your user account.

Time Position Orientation Groundspeed Altitude Reporting Facility
EDT Latitude Longitude Course Direction KTS MPH feet Rate Location/Type
Tue 11:03:56 PM 41.9710 -87.8840 180° South 21 24  Level FlightAware
Tue 11:13:39 PM 41.9690 -87.8890 270° West 25 29 118 Level FlightAware
Tue 11:14:07 PM 41.9690 -87.9220 270° West 158 182 1,200 2,381 Climbing FlightAware
Tue 11:14:42 PM 41.9510 -87.9460 225° Southwest 192 221 2,500 2,000 Climbing FlightAware
Tue 11:15:10 PM 41.9250 -87.9540 193° South 238 274 3,300 2,298 Climbing FlightAware
Tue 11:15:29 PM 41.9020 -87.9630 196° South 258 297 4,300 3,484 Climbing FlightAware
Tue 11:15:41 PM 41.8880 -87.9680 195° South 263 303 5,100 3,730 Climbing FlightAware
Tue 11:16:06 PM 41.8580 -87.9800 197° South 272 313 6,600 3,600 Climbing FlightAware
Tue 11:16:26 PM 41.8330 -87.9910 198° South 280 322 7,800 3,400 Climbing FlightAware
Tue 11:17:06 PM 41.7830 -87.9860 176° South 292 336 10,000 3,429 Climbing FlightAware
Tue 11:17:50 PM 41.7380 -87.9290 137° Southeast 305 351 12,600 3,534 Climbing FlightAware
Tue 11:18:19 PM 41.7070 -87.8950 141° Southeast 309 356 14,300 3,385 Climbing FlightAware
Tue 11:18:29 PM 41.6930 -87.8900 165° South 311 358 14,800 3,385 Climbing FlightAware
Tue 11:18:58 PM 41.6530 -87.9010 192° South 316 364 16,500 2,657 Climbing FlightAware
Tue 11:19:39 PM 41.5930 -87.9320 201° Southwest 353 406 17,900 2,571 Climbing FlightAware
Tue 11:20:22 PM 41.5280 -87.9750 206° Southwest 368 423 20,100 2,964 Climbing FlightAware
Tue 11:21:02 PM 41.4660 -88.0200 209° Southwest 381 438 22,000 2,682 Climbing FlightAware
Tue 11:21:47 PM 41.3960 -88.0700 208° Southwest 394 453 23,900 2,659 Climbing FlightAware
Tue 11:22:30 PM 41.3240 -88.1180 207° Southwest 402 463 25,900 2,571 Climbing FlightAware
Tue 11:23:11 PM 41.2550 -88.1640 207° Southwest 412 474 27,500 2,296 Climbing FlightAware
Tue 11:23:51 PM 41.1870 -88.2110 207° Southwest 422 486 29,000 2,214 Climbing FlightAware
Tue 11:24:35 PM 41.1100 -88.2630 207° Southwest 431 496 30,600 2,138 Climbing FlightAware
Tue 11:25:18 PM 41.0310 -88.3160 207° Southwest 440 506 32,100 2,024 Climbing FlightAware
Tue 11:25:58 PM 40.9590 -88.3640 207° Southwest 446 513 33,400 1,786 Climbing FlightAware
Tue 11:26:42 PM 40.8780 -88.4190 207° Southwest 452 520 34,600 1,429 Climbing FlightAware
Tue 11:27:22 PM 40.8010 -88.4700 207° Southwest 467 537 35,400 1,341 Climbing FlightAware
Tue 11:28:07 PM 40.7160 -88.5270 207° Southwest 473 544 36,500 1,786 Climbing FlightAware
Tue 11:28:46 PM 40.6370 -88.5790 207° Southwest 466 536 37,900 1,880 Climbing FlightAware
Tue 11:29:30 PM 40.5530 -88.6350 207° Southwest 463 533 39,100 1,429 Climbing FlightAware
Tue 11:30:10 PM 40.4770 -88.6840 206° Southwest 463 533 39,900 659 Climbing FlightAware
Tue 11:30:52 PM 40.3960 -88.7380 207° Southwest 462 532 40,000 77 Climbing FlightAware
Tue 11:31:28 PM 40.3280 -88.7830 207° Southwest 461 531 40,000  Level FlightAware
Tue 11:32:13 PM 40.2440 -88.8370 206° Southwest 460 529 40,000  Level FlightAware
Tue 11:32:52 PM 40.1670 -88.8880 207° Southwest 459 528 40,000  Level FlightAware
Tue 11:33:37 PM 40.0850 -88.9410 206° Southwest 458 527 40,000  Level FlightAware
Tue 11:34:18 PM 40.0040 -88.9940 207° Southwest 459 528 40,000  Level FlightAware
Tue 11:34:58 PM 39.9290 -89.0430 207° Southwest 460 529 40,000  Level FlightAware
Tue 11:35:39 PM 39.8510 -89.0930 206° Southwest 461 531 40,000  Level FlightAware
Tue 11:36:21 PM 39.7700 -89.1450 206° Southwest 462 532 40,000  Level FlightAware
Tue 11:37:04 PM 39.6890 -89.1970 206° Southwest 463 533 40,000  Level FlightAware
Tue 11:37:45 PM 39.6090 -89.2490 207° Southwest 462 532 40,000  Level FlightAware
Tue 11:38:29 PM 39.5270 -89.3010 206° Southwest 461 531 40,000  Level FlightAware
Tue 11:39:10 PM 39.4470 -89.3520 206° Southwest 459 528 40,000  Level FlightAware
Tue 11:39:52 PM 39.3690 -89.4020 206° Southwest 460 529 40,000  Level FlightAware
Tue 11:40:35 PM 39.2870 -89.4540 206° Southwest 459 528 40,000  Level FlightAware
Tue 11:41:17 PM 39.2040 -89.5060 206° Southwest 458 527 40,000  Level FlightAware
Tue 11:42:00 PM 39.1260 -89.5560 206° Southwest 458 527 40,000  Level FlightAware
Tue 11:42:41 PM 39.0440 -89.6070 206° Southwest 461 531 40,000  Level FlightAware
Tue 11:43:17 PM 38.9770 -89.6490 206° Southwest 459 528 40,000  Level FlightAware
Tue 11:43:50 PM 38.9120 -89.6900 206° Southwest 456 525 40,000  Level FlightAware
Tue 11:44:47 PM 38.8130 -89.7520 206° Southwest 455 524 40,000  Level FlightAware
Tue 11:45:29 PM 38.7260 -89.8060 206° Southwest 456 525 40,000  Level FlightAware
Tue 11:46:11 PM 38.6440 -89.8570 206° Southwest 457 526 40,000  Level FlightAware
Tue 11:46:52 PM 38.5660 -89.9060 206° Southwest 456 525 40,000  Level FlightAware
Tue 11:47:28 PM 38.5020 -89.9450 205° Southwest 457 526 40,000  Level FlightAware
Tue 11:48:16 PM 38.4240 -89.9920 205° Southwest 457 526 40,000  Level FlightAware
Tue 11:48:52 PM 38.3650 -90.0260 204° Southwest 457 526 40,000  Level FlightAware
Tue 11:49:40 PM 38.2580 -90.0940 207° Southwest 452 520 40,000  Level FlightAware
Tue 11:50:23 PM 38.1680 -90.1500 206° Southwest 449 517 40,000  Level FlightAware
Tue 11:51:07 PM 38.0850 -90.2010 206° Southwest 449 517 40,000  Level FlightAware
Tue 11:51:47 PM 38.0110 -90.2460 206° Southwest 450 518 40,000  Level FlightAware
Tue 11:52:41 PM 37.9160 -90.3030 205° Southwest 450 518 40,000  Level FlightAware
Tue 11:53:17 PM 37.8580 -90.3370 205° Southwest 450 518 40,000  Level FlightAware
Tue 11:54:05 PM 37.7810 -90.3830 205° Southwest 450 518 40,000  Level FlightAware
Tue 11:54:41 PM 37.7240 -90.4170 205° Southwest 450 518 40,000  Level FlightAware
Tue 11:55:29 PM 37.6470 -90.4620 205° Southwest 450 518 40,000  Level FlightAware
Tue 11:56:29 PM 37.5500 -90.5190 205° Southwest 450 518 40,000  Level FlightAware
Tue 11:57:05 PM 37.4930 -90.5530 205° Southwest 450 518 40,000  Level FlightAware
Tue 11:57:42 PM 37.3470 -90.6470 207° Southwest 450 518 40,000  Level FlightAware
Tue 11:58:24 PM 37.2670 -90.6950 206° Southwest 451 519 40,000  Level FlightAware
Tue 11:59:08 PM 37.1840 -90.7440 205° Southwest 454 522 40,000  Level FlightAware
Tue 11:59:40 PM 37.1220 -90.7800 205° Southwest 454 522 40,000  Level FlightAware
Wed 12:00:25 AM 37.0380 -90.8300 205° Southwest 456 525 40,000  Level FlightAware
Wed 12:01:08 AM 36.9540 -90.8800 205° Southwest 458 527 40,000  Level FlightAware
Wed 12:01:48 AM 36.8780 -90.9250 205° Southwest 458 527 40,000  Level FlightAware
Wed 12:02:32 AM 36.7930 -90.9740 205° Southwest 457 526 40,000  Level FlightAware
Wed 12:03:12 AM 36.7130 -91.0110 200° South 458 527 40,000  Level FlightAware
Wed 12:03:54 AM 36.6300 -91.0480 200° South 460 529 40,000  Level FlightAware
Wed 12:04:38 AM 36.5410 -91.0870 199° South 461 531 40,000  Level FlightAware
Wed 12:05:18 AM 36.4590 -91.1230 199° South 462 532 40,000  Level FlightAware
Wed 12:06:02 AM 36.3730 -91.1610 200° South 464 534 40,000  Level FlightAware
Wed 12:06:42 AM 36.2900 -91.1970 199° South 464 534 40,000  Level FlightAware
Wed 12:07:26 AM 36.2010 -91.2360 199° South 464 534 40,000  Level FlightAware
Wed 12:08:07 AM 36.1280 -91.2670 199° South 464 534 40,000  Level FlightAware
Wed 12:08:43 AM 36.0660 -91.2940 199° South 464 534 40,000  Level FlightAware
Wed 12:09:30 AM 35.9500 -91.3450 200° South 468 539 40,000  Level FlightAware
Wed 12:10:14 AM 35.8580 -91.3850 199° South 470 541 40,000  Level FlightAware
Wed 12:10:53 AM 35.7800 -91.4190 199° South 471 542 40,000  Level FlightAware
Wed 12:11:29 AM 35.7150 -91.4470 199° South 471 542 40,000  Level FlightAware
Wed 12:12:11 AM 35.6180 -91.4880 199° South 473 544 40,000  Level FlightAware
Wed 12:12:58 AM 35.5340 -91.5240 199° South 473 544 40,000  Level FlightAware
Wed 12:13:35 AM 35.4440 -91.5630 199° South 475 547 40,000  Level FlightAware
Wed 12:14:14 AM 35.3770 -91.5910 199° South 476 548 40,000  Level FlightAware
Wed 12:17:33 AM 35.0160 -91.7450 199° South 478 550 40,000  Level FlightAware
Wed 12:18:09 AM 34.9520 -91.7720 199° South 478 550 40,000  Level FlightAware
Wed 12:18:57 AM 34.8660 -91.8070 198° South 478 550 40,000  Level FlightAware
Wed 12:19:33 AM 34.8020 -91.8340 199° South 478 550 40,000  Level FlightAware
Wed 12:20:21 AM 34.7170 -91.8700 199° South 478 550 40,000  Level FlightAware
Wed 12:20:57 AM 34.6530 -91.8970 199° South 478 550 40,000  Level FlightAware
Wed 12:21:45 AM 34.5680 -91.9320 199° South 478 550 40,000  Level FlightAware
Wed 12:22:21 AM 34.5040 -91.9590 199° South 478 550 40,000  Level FlightAware
Wed 12:23:09 AM 34.4180 -91.9950 199° South 478 550 40,000  Level FlightAware
Wed 12:23:45 AM 34.3540 -92.0210 199° South 478 550 40,000  Level FlightAware
Wed 12:24:21 AM 34.2900 -92.0480 199° South 478 550 40,000  Level FlightAware
Wed 12:25:09 AM 34.2050 -92.0840 199° South 478 550 40,000  Level FlightAware
Wed 12:25:45 AM 34.1410 -92.1100 199° South 478 550 40,000  Level FlightAware
Wed 12:31:38 AM 33.2401 -92.6703 208° Southwest 475 547 40,000  Level FlightAware
Wed 12:32:11 AM 33.1752 -92.7077 206° Southwest 475 547 40,000  Level FlightAware
Wed 12:32:44 AM 33.1100 -92.7452 206° Southwest 475 547 40,000  Level FlightAware
Wed 12:33:30 AM 33.0205 -92.7966 206° Southwest 473 544 40,000  Level FlightAware
Wed 12:34:27 AM 32.9178 -92.8528 206° Southwest 476 548 40,000  Level Fort Center
Wed 12:35:27 AM 32.7989 -92.9181 205° Southwest 476 548 40,000 -357 Level Fort Center
Wed 12:41:27 AM 32.1382 -93.4009 205° Southwest 450 518 37,500 -523 Descending FlightAware
Wed 12:41:57 AM 32.0866 -93.4435 215° Southwest 446 513 36,600 -1,475 Descending FlightAware
Wed 12:42:28 AM 32.0351 -93.4860 215° Southwest 443 510 36,000 -1,082 Descending FlightAware
Wed 12:42:58 AM 31.9850 -93.5273 215° Southwest 436 502 35,500 -1,475 Descending FlightAware
Wed 12:43:29 AM 31.9343 -93.5689 215° Southwest 440 506 34,500 -1,770 Descending FlightAware
Wed 12:43:59 AM 31.8841 -93.6101 215° Southwest 435 501 33,700 -1,377 Descending FlightAware
Wed 12:44:30 AM 31.8337 -93.6512 215° Southwest 427 491 33,100 -1,672 Descending FlightAware
Wed 12:45:00 AM 31.7828 -93.6887 212° Southwest 431 496 32,000 -1,778 Descending FlightAware
Wed 12:45:24 AM 31.7428 -93.7175 211° Southwest 427 491 31,500 -1,263 Descending FlightAware
Wed 12:45:57 AM 31.6873 -93.7580 212° Southwest 420 483 30,800 -1,333 Descending FlightAware
Wed 12:46:27 AM 31.6381 -93.7945 212° Southwest 413 475 30,100 -1,400 Descending FlightAware
Wed 12:46:57 AM 31.5898 -93.8304 212° Southwest 406 467 29,400 -1,377 Descending FlightAware
Wed 12:47:28 AM 31.5411 -93.8666 212° Southwest 403 464 28,700 -1,355 Descending FlightAware
Wed 12:47:59 AM 31.4934 -93.9018 212° Southwest 398 458 28,000 -1,377 Descending FlightAware
Wed 12:48:29 AM 31.4466 -93.9362 212° Southwest 394 453 27,300 -1,300 Descending FlightAware
Wed 12:48:59 AM 31.4004 -93.9701 212° Southwest 392 451 26,700 -1,300 Descending FlightAware
Wed 12:49:29 AM 31.3542 -94.0040 212° Southwest 388 447 26,000 -1,400 Descending FlightAware
Wed 12:49:59 AM 31.3085 -94.0376 212° Southwest 385 443 25,300 -1,400 Descending FlightAware
Wed 12:50:29 AM 31.2629 -94.0710 212° Southwest 384 442 24,600 -1,377 Descending FlightAware
Wed 12:51:00 AM 31.2171 -94.1044 212° Southwest 378 435 23,900 -1,333 Descending FlightAware
Wed 12:51:23 AM 31.1831 -94.1291 212° Southwest 373 429 23,400 -1,358 Descending FlightAware
Wed 12:51:53 AM 31.1390 -94.1616 212° Southwest 368 423 22,700 -1,300 Descending FlightAware
Wed 12:52:23 AM 31.0960 -94.1929 212° Southwest 363 418 22,100 -1,279 Descending FlightAware
Wed 12:52:54 AM 31.0529 -94.2242 212° Southwest 359 413 21,400 -1,377 Descending FlightAware
Wed 12:53:24 AM 31.0108 -94.2548 212° Southwest 355 409 20,700 -1,388 Descending FlightAware
Wed 12:54:55 AM 30.8853 -94.3461 212° Southwest 345 397 18,600 -1,440 Descending FlightAware
Wed 12:55:54 AM 30.8046 -94.4044 212° Southwest 341 392 17,100 -1,400 Descending FlightAware
Wed 12:56:25 AM 30.7646 -94.4333 212° Southwest 336 387 16,500 -1,279 Descending FlightAware
Wed 12:56:55 AM 30.7249 -94.4620 212° Southwest 332 382 15,800 -1,377 Descending FlightAware
Wed 12:57:26 AM 30.6844 -94.4913 212° Southwest 327 376 15,100 -1,370 Descending FlightAware
Wed 12:58:27 AM 30.6078 -94.5465 212° Southwest 313 360 13,700 -1,328 Descending FlightAware
Wed 12:59:28 AM 30.5330 -94.6001 212° Southwest 304 350 12,400 -1,241 Descending FlightAware
Wed 12:59:54 AM 30.5023 -94.6226 212° Southwest 302 348 11,900 -1,200 Descending FlightAware
Wed 01:00:08 AM 30.4870 -94.6367 218° Southwest 302 348 11,600 -1,304 Descending FlightAware
Wed 01:00:40 AM 30.4545 -94.6712 222° Southwest 304 350 10,900 -1,121 Descending FlightAware
Wed 01:01:39 AM 30.3944 -94.7360 223° Southwest 289 333 9,900 -1,009 Descending FlightAware
Wed 01:02:27 AM 30.3479 -94.7864 223° Southwest 282 325 9,100 -1,071 Descending FlightAware
Wed 01:03:31 AM 30.2882 -94.8511 223° Southwest 274 315 7,900 -1,099 Descending FlightAware
Wed 01:03:38 AM 30.2806 -94.8579 218° Southwest 273 314 7,800 -1,125 Descending FlightAware
Wed 01:03:47 AM 30.2719 -94.8643 212° Southwest 271 312 7,600 -1,000 Descending FlightAware
Wed 01:03:56 AM 30.2612 -94.8713 209° Southwest 269 310 7,500 -1,111 Descending FlightAware
Wed 01:04:14 AM 30.2415 -94.8825 205° Southwest 269 310 7,100 -1,200 Descending FlightAware
Wed 01:04:21 AM 30.2337 -94.8863 203° Southwest 269 310 7,000 -923 Descending FlightAware
Wed 01:04:27 AM 30.2267 -94.8895 202° Southwest 268 308 6,900 -1,200 Descending FlightAware
Wed 01:04:36 AM 30.2163 -94.8939 200° South 267 307 6,700 -1,200 Descending FlightAware
Wed 01:05:02 AM 30.1863 -94.9069 201° Southwest 264 304 6,200 -1,000 Descending FlightAware
Wed 01:05:42 AM 30.1410 -94.9265 201° Southwest 260 299 5,600 -964 Descending FlightAware
Wed 01:05:58 AM 30.1230 -94.9342 200° South 258 297 5,300 -978 Descending FlightAware
Wed 01:07:14 AM 30.0414 -94.9693 200° South 235 270 4,100 -978 Descending FlightAware
Wed 01:07:30 AM 30.0250 -94.9763 200° South 229 264 3,800 -439 Descending FlightAware
Wed 01:07:55 AM 30.0012 -94.9868 203° Southwest 214 246 3,800  Level FlightAware
Wed 01:07:59 AM 29.9978 -94.9890 209° Southwest 213 245 3,800 -857 Level FlightAware
Wed 01:08:02 AM 29.9951 -94.9910 213° Southwest 212 244 3,700 -857 Descending FlightAware
Wed 01:08:06 AM 29.9921 -94.9938 219° Southwest 212 244 3,700  Level FlightAware
Wed 01:08:10 AM 29.9897 -94.9965 224° Southwest 212 244 3,700 -857 Level FlightAware
Wed 01:08:13 AM 29.9873 -94.9995 227° Southwest 213 245 3,600 -857 Descending FlightAware
Wed 01:08:17 AM 29.9853 -95.0026 233° Southwest 213 245 3,600 -500 Level FlightAware
Wed 01:08:25 AM 29.9809 -95.0107 242° Southwest 213 245 3,500 -800 Descending FlightAware
Wed 01:08:32 AM 29.9786 -95.0184 255° West 214 246 3,400 -1,000 Descending FlightAware
Wed 01:08:37 AM 29.9777 -95.0240 259° West 215 247 3,300 -600 Descending FlightAware
Wed 01:09:02 AM 29.9769 -95.0524 271° West 215 247 3,100 -439 Descending FlightAware
Wed 01:09:18 AM 29.9772 -95.0711 271° West 216 249 3,000 -429 Descending FlightAware
Wed 01:09:30 AM 29.9774 -95.0844 271° West 215 247 2,900 -273 Descending FlightAware
Wed 01:09:40 AM 29.9775 -95.0957 271° West 209 241 2,900 -450 Level FlightAware
Wed 01:10:10 AM 29.9775 -95.1280 270° West 196 226 2,600 -533 Descending FlightAware
Wed 01:10:25 AM 29.9775 -95.1435 270° West 194 223 2,500 -462 Descending FlightAware
Wed 01:10:36 AM 29.9775 -95.1547 270° West 189 217 2,400 -900 Descending FlightAware
Wed 01:10:45 AM 29.9776 -95.1638 271° West 190 219 2,200 -1,043 Descending FlightAware
Wed 01:10:59 AM 29.9776 -95.1780 270° West 192 221 2,000 -960 Descending FlightAware
Wed 01:11:10 AM 29.9776 -95.1894 270° West 192 221 1,800 -1,111 Descending FlightAware
Wed 01:11:26 AM 29.9776 -95.2061 270° West 192 221 1,500 -1,125 Descending FlightAware
Wed 01:11:42 AM 29.9776 -95.2227 270° West 190 219 1,200 -938 Descending FlightAware
Wed 01:11:58 AM 29.9776 -95.2377 270° West 179 206 1,000 -774 Descending FlightAware
Wed 01:12:13 AM 29.9776 -95.2520 270° West 163 188 800 -774 Descending FlightAware
Wed 01:12:29 AM 29.9776 -95.2650 270° West 158 182 600 -968 Descending FlightAware
Wed 01:12:44 AM 29.9776 -95.2776 270° West 155 178 300 -909 Descending FlightAware
Wed 01:13:02 AM 29.9776 -95.2919 270° West 150 173 100 -667 Descending FlightAware

Login

Don't have an account? Register now (free) for customized features, flight alerts, and more!